sensor_id;sensor_type;location;lat;lon;timestamp;P1;durP1;ratioP1;P2;durP2;ratioP2
11986;SDS011;6053;51.382;6.768;2022-07-23T00:00:34;0.80;;;0.60;;
11986;SDS011;6053;51.382;6.768;2022-07-23T00:03:05;0.80;;;0.80;;
11986;SDS011;6053;51.382;6.768;2022-07-23T00:05:33;0.90;;;0.90;;
11986;SDS011;6053;51.382;6.768;2022-07-23T00:08:04;0.70;;;0.70;;
11986;SDS011;6053;51.382;6.768;2022-07-23T00:10:40;0.70;;;0.70;;
11986;SDS011;6053;51.382;6.768;2022-07-23T00:13:09;0.50;;;0.50;;
11986;SDS011;6053;51.382;6.768;2022-07-23T00:15:38;0.60;;;0.60;;
11986;SDS011;6053;51.382;6.768;2022-07-23T00:18:06;1.70;;;0.60;;
11986;SDS011;6053;51.382;6.768;2022-07-23T00:20:35;0.50;;;0.50;;
11986;SDS011;6053;51.382;6.768;2022-07-23T00:23:03;0.90;;;0.70;;
11986;SDS011;6053;51.382;6.768;2022-07-23T00:25:31;0.80;;;0.80;;
11986;SDS011;6053;51.382;6.768;2022-07-23T00:28:01;0.90;;;0.80;;
11986;SDS011;6053;51.382;6.768;2022-07-23T00:30:31;1.15;;;0.70;;
11986;SDS011;6053;51.382;6.768;2022-07-23T00:33:02;0.70;;;0.70;;
11986;SDS011;6053;51.382;6.768;2022-07-23T00:35:33;0.90;;;0.90;;
11986;SDS011;6053;51.382;6.768;2022-07-23T00:38:04;0.60;;;0.60;;
11986;SDS011;6053;51.382;6.768;2022-07-23T00:40:32;0.60;;;0.53;;
11986;SDS011;6053;51.382;6.768;2022-07-23T00:43:02;0.60;;;0.60;;
11986;SDS011;6053;51.382;6.768;2022-07-23T00:45:31;0.98;;;0.98;;
11986;SDS011;6053;51.382;6.768;2022-07-23T00:48:00;0.55;;;0.55;;
11986;SDS011;6053;51.382;6.768;2022-07-23T00:50:29;0.60;;;0.60;;
11986;SDS011;6053;51.382;6.768;2022-07-23T00:52:57;1.10;;;0.90;;
11986;SDS011;6053;51.382;6.768;2022-07-23T00:55:25;0.55;;;0.55;;
11986;SDS011;6053;51.382;6.768;2022-07-23T00:57:54;0.60;;;0.60;;
11986;SDS011;6053;51.382;6.768;2022-07-23T01:00:25;0.50;;;0.50;;
11986;SDS011;6053;51.382;6.768;2022-07-23T01:02:53;0.50;;;0.50;;
11986;SDS011;6053;51.382;6.768;2022-07-23T01:05:22;0.52;;;0.52;;
11986;SDS011;6053;51.382;6.768;2022-07-23T01:07:50;0.57;;;0.57;;
11986;SDS011;6053;51.382;6.768;2022-07-23T01:10:22;0.93;;;0.70;;
11986;SDS011;6053;51.382;6.768;2022-07-23T01:13:01;0.70;;;0.70;;
11986;SDS011;6053;51.382;6.768;2022-07-23T01:15:33;0.60;;;0.60;;
11986;SDS011;6053;51.382;6.768;2022-07-23T01:18:04;1.10;;;0.82;;
11986;SDS011;6053;51.382;6.768;2022-07-23T01:20:34;0.77;;;0.77;;
11986;SDS011;6053;51.382;6.768;2022-07-23T01:23:05;0.68;;;0.68;;
11986;SDS011;6053;51.382;6.768;2022-07-23T01:25:33;0.80;;;0.80;;
11986;SDS011;6053;51.382;6.768;2022-07-23T01:28:02;0.60;;;0.60;;
11986;SDS011;6053;51.382;6.768;2022-07-23T01:30:31;0.57;;;0.57;;
11986;SDS011;6053;51.382;6.768;2022-07-23T01:32:59;0.70;;;0.70;;
11986;SDS011;6053;51.382;6.768;2022-07-23T01:35:28;0.68;;;0.68;;
11986;SDS011;6053;51.382;6.768;2022-07-23T01:37:56;0.70;;;0.70;;
11986;SDS011;6053;51.382;6.768;2022-07-23T01:40:26;0.80;;;0.80;;
11986;SDS011;6053;51.382;6.768;2022-07-23T01:42:54;0.70;;;0.70;;
11986;SDS011;6053;51.382;6.768;2022-07-23T01:45:23;0.70;;;0.70;;
11986;SDS011;6053;51.382;6.768;2022-07-23T01:47:51;0.63;;;0.63;;
11986;SDS011;6053;51.382;6.768;2022-07-23T01:50:20;0.70;;;0.63;;
11986;SDS011;6053;51.382;6.768;2022-07-23T01:52:48;0.70;;;0.70;;
11986;SDS011;6053;51.382;6.768;2022-07-23T01:55:16;0.77;;;0.60;;
11986;SDS011;6053;51.382;6.768;2022-07-23T01:57:46;0.45;;;0.45;;
11986;SDS011;6053;51.382;6.768;2022-07-23T02:00:15;0.90;;;0.90;;
11986;SDS011;6053;51.382;6.768;2022-07-23T02:02:43;0.67;;;0.67;;
11986;SDS011;6053;51.382;6.768;2022-07-23T02:05:12;0.60;;;0.60;;
11986;SDS011;6053;51.382;6.768;2022-07-23T02:07:40;0.60;;;0.60;;
11986;SDS011;6053;51.382;6.768;2022-07-23T02:10:08;0.52;;;0.52;;
11986;SDS011;6053;51.382;6.768;2022-07-23T02:12:37;0.70;;;0.70;;
11986;SDS011;6053;51.382;6.768;2022-07-23T02:15:07;0.80;;;0.63;;
11986;SDS011;6053;51.382;6.768;2022-07-23T02:17:37;0.60;;;0.60;;
11986;SDS011;6053;51.382;6.768;2022-07-23T02:20:07;0.70;;;0.70;;
11986;SDS011;6053;51.382;6.768;2022-07-23T02:22:38;0.65;;;0.60;;
11986;SDS011;6053;51.382;6.768;2022-07-23T02:25:07;0.60;;;0.60;;
11986;SDS011;6053;51.382;6.768;2022-07-23T02:27:36;0.90;;;0.90;;
11986;SDS011;6053;51.382;6.768;2022-07-23T02:30:07;0.60;;;0.60;;
11986;SDS011;6053;51.382;6.768;2022-07-23T02:32:36;1.30;;;0.80;;
11986;SDS011;6053;51.382;6.768;2022-07-23T02:35:06;0.60;;;0.60;;
11986;SDS011;6053;51.382;6.768;2022-07-23T02:37:35;0.80;;;0.80;;
11986;SDS011;6053;51.382;6.768;2022-07-23T02:40:03;0.90;;;0.90;;
11986;SDS011;6053;51.382;6.768;2022-07-23T02:42:33;0.90;;;0.90;;
11986;SDS011;6053;51.382;6.768;2022-07-23T02:45:01;0.60;;;0.60;;
11986;SDS011;6053;51.382;6.768;2022-07-23T02:47:32;0.60;;;0.60;;
11986;SDS011;6053;51.382;6.768;2022-07-23T02:50:00;0.60;;;0.60;;
11986;SDS011;6053;51.382;6.768;2022-07-23T02:52:30;0.77;;;0.77;;
11986;SDS011;6053;51.382;6.768;2022-07-23T02:54:58;0.60;;;0.60;;
11986;SDS011;6053;51.382;6.768;2022-07-23T02:57:26;0.70;;;0.70;;
11986;SDS011;6053;51.382;6.768;2022-07-23T02:59:55;1.75;;;1.10;;
11986;SDS011;6053;51.382;6.768;2022-07-23T03:02:23;0.70;;;0.70;;
11986;SDS011;6053;51.382;6.768;2022-07-23T03:04:53;0.68;;;0.68;;
11986;SDS011;6053;51.382;6.768;2022-07-23T03:07:22;0.70;;;0.70;;
11986;SDS011;6053;51.382;6.768;2022-07-23T03:09:50;0.70;;;0.70;;
11986;SDS011;6053;51.382;6.768;2022-07-23T03:12:19;0.70;;;0.70;;
11986;SDS011;6053;51.382;6.768;2022-07-23T03:14:47;0.60;;;0.60;;
11986;SDS011;6053;51.382;6.768;2022-07-23T03:17:16;0.80;;;0.80;;
11986;SDS011;6053;51.382;6.768;2022-07-23T03:19:44;0.67;;;0.67;;
11986;SDS011;6053;51.382;6.768;2022-07-23T03:22:14;1.02;;;1.02;;
11986;SDS011;6053;51.382;6.768;2022-07-23T03:24:43;2.30;;;0.70;;
11986;SDS011;6053;51.382;6.768;2022-07-23T03:27:24;0.70;;;0.70;;
11986;SDS011;6053;51.382;6.768;2022-07-23T03:29:54;0.60;;;0.60;;
11986;SDS011;6053;51.382;6.768;2022-07-23T03:32:24;0.85;;;0.85;;
11986;SDS011;6053;51.382;6.768;2022-07-23T03:34:53;0.63;;;0.63;;
11986;SDS011;6053;51.382;6.768;2022-07-23T03:37:24;0.80;;;0.80;;
11986;SDS011;6053;51.382;6.768;2022-07-23T03:39:54;0.70;;;0.70;;
11986;SDS011;6053;51.382;6.768;2022-07-23T03:42:22;0.70;;;0.70;;
11986;SDS011;6053;51.382;6.768;2022-07-23T03:44:50;0.77;;;0.77;;
11986;SDS011;6053;51.382;6.768;2022-07-23T03:47:19;0.75;;;0.75;;
11986;SDS011;6053;51.382;6.768;2022-07-23T03:49:48;0.60;;;0.60;;
11986;SDS011;6053;51.382;6.768;2022-07-23T03:52:17;0.70;;;0.70;;
11986;SDS011;6053;51.382;6.768;2022-07-23T03:54:46;1.00;;;0.82;;
11986;SDS011;6053;51.382;6.768;2022-07-23T03:57:15;0.73;;;0.73;;
11986;SDS011;6053;51.382;6.768;2022-07-23T03:59:43;0.73;;;0.73;;
11986;SDS011;6053;51.382;6.768;2022-07-23T04:02:12;0.80;;;0.80;;
11986;SDS011;6053;51.382;6.768;2022-07-23T04:04:40;0.70;;;0.70;;
11986;SDS011;6053;51.382;6.768;2022-07-23T04:07:08;0.88;;;0.88;;
11986;SDS011;6053;51.382;6.768;2022-07-23T04:09:37;0.80;;;0.80;;
11986;SDS011;6053;51.382;6.768;2022-07-23T04:12:12;0.70;;;0.70;;
11986;SDS011;6053;51.382;6.768;2022-07-23T04:14:41;0.80;;;0.80;;
11986;SDS011;6053;51.382;6.768;2022-07-23T04:17:10;0.77;;;0.77;;
11986;SDS011;6053;51.382;6.768;2022-07-23T04:19:38;0.80;;;0.80;;
11986;SDS011;6053;51.382;6.768;2022-07-23T04:22:09;0.80;;;0.80;;
11986;SDS011;6053;51.382;6.768;2022-07-23T04:24:38;0.90;;;0.90;;
11986;SDS011;6053;51.382;6.768;2022-07-23T04:27:07;0.70;;;0.70;;
11986;SDS011;6053;51.382;6.768;2022-07-23T04:29:37;0.88;;;0.88;;
11986;SDS011;6053;51.382;6.768;2022-07-23T04:32:05;0.70;;;0.70;;
11986;SDS011;6053;51.382;6.768;2022-07-23T04:34:33;0.75;;;0.75;;
11986;SDS011;6053;51.382;6.768;2022-07-23T04:37:02;0.80;;;0.80;;
11986;SDS011;6053;51.382;6.768;2022-07-23T04:39:30;0.85;;;0.85;;
11986;SDS011;6053;51.382;6.768;2022-07-23T04:41:59;0.77;;;0.77;;
11986;SDS011;6053;51.382;6.768;2022-07-23T04:44:27;0.70;;;0.70;;
11986;SDS011;6053;51.382;6.768;2022-07-23T04:46:57;0.80;;;0.80;;
11986;SDS011;6053;51.382;6.768;2022-07-23T04:49:26;0.82;;;0.82;;
11986;SDS011;6053;51.382;6.768;2022-07-23T04:51:54;0.90;;;0.90;;
11986;SDS011;6053;51.382;6.768;2022-07-23T04:54:22;0.80;;;0.80;;
11986;SDS011;6053;51.382;6.768;2022-07-23T04:56:51;0.80;;;0.80;;
11986;SDS011;6053;51.382;6.768;2022-07-23T04:59:19;1.35;;;1.25;;
11986;SDS011;6053;51.382;6.768;2022-07-23T05:01:48;0.98;;;0.98;;
11986;SDS011;6053;51.382;6.768;2022-07-23T05:04:18;0.80;;;0.80;;
11986;SDS011;6053;51.382;6.768;2022-07-23T05:06:47;0.88;;;0.88;;
11986;SDS011;6053;51.382;6.768;2022-07-23T05:09:15;0.85;;;0.85;;
11986;SDS011;6053;51.382;6.768;2022-07-23T05:11:43;0.85;;;0.85;;
11986;SDS011;6053;51.382;6.768;2022-07-23T05:14:12;0.80;;;0.80;;
11986;SDS011;6053;51.382;6.768;2022-07-23T05:16:40;1.20;;;1.13;;
11986;SDS011;6053;51.382;6.768;2022-07-23T05:19:09;1.10;;;1.10;;
11986;SDS011;6053;51.382;6.768;2022-07-23T05:21:39;0.95;;;0.95;;
11986;SDS011;6053;51.382;6.768;2022-07-23T05:24:07;0.90;;;0.90;;
11986;SDS011;6053;51.382;6.768;2022-07-23T05:26:35;1.60;;;1.50;;
11986;SDS011;6053;51.382;6.768;2022-07-23T05:29:04;1.55;;;1.50;;
11986;SDS011;6053;51.382;6.768;2022-07-23T05:31:33;1.88;;;1.67;;
11986;SDS011;6053;51.382;6.768;2022-07-23T05:34:02;0.90;;;0.90;;
11986;SDS011;6053;51.382;6.768;2022-07-23T05:36:30;0.90;;;0.90;;
11986;SDS011;6053;51.382;6.768;2022-07-23T05:39:02;1.02;;;1.02;;
11986;SDS011;6053;51.382;6.768;2022-07-23T05:41:31;0.90;;;0.90;;
11986;SDS011;6053;51.382;6.768;2022-07-23T05:44:00;1.67;;;1.58;;
11986;SDS011;6053;51.382;6.768;2022-07-23T05:46:28;3.33;;;1.85;;
11986;SDS011;6053;51.382;6.768;2022-07-23T05:48:57;1.23;;;1.23;;
11986;SDS011;6053;51.382;6.768;2022-07-23T05:51:26;1.87;;;1.77;;
11986;SDS011;6053;51.382;6.768;2022-07-23T05:53:54;0.90;;;0.90;;
11986;SDS011;6053;51.382;6.768;2022-07-23T05:56:25;1.15;;;1.15;;
11986;SDS011;6053;51.382;6.768;2022-07-23T05:58:54;1.50;;;1.10;;
11986;SDS011;6053;51.382;6.768;2022-07-23T06:01:23;1.10;;;1.07;;
11986;SDS011;6053;51.382;6.768;2022-07-23T06:03:51;1.48;;;1.17;;
11986;SDS011;6053;51.382;6.768;2022-07-23T06:06:19;1.27;;;1.27;;
11986;SDS011;6053;51.382;6.768;2022-07-23T06:08:48;1.33;;;1.23;;
11986;SDS011;6053;51.382;6.768;2022-07-23T06:11:16;0.90;;;0.90;;
11986;SDS011;6053;51.382;6.768;2022-07-23T06:13:46;0.93;;;0.93;;
11986;SDS011;6053;51.382;6.768;2022-07-23T06:16:14;2.35;;;2.00;;
11986;SDS011;6053;51.382;6.768;2022-07-23T06:18:43;0.90;;;0.90;;
11986;SDS011;6053;51.382;6.768;2022-07-23T06:21:13;1.60;;;1.55;;
11986;SDS011;6053;51.382;6.768;2022-07-23T06:24:01;2.50;;;2.30;;
11986;SDS011;6053;51.382;6.768;2022-07-23T06:26:30;2.08;;;1.88;;
11986;SDS011;6053;51.382;6.768;2022-07-23T06:29:00;1.17;;;1.17;;
11986;SDS011;6053;51.382;6.768;2022-07-23T06:31:29;4.60;;;3.07;;
11986;SDS011;6053;51.382;6.768;2022-07-23T06:33:58;1.23;;;1.20;;
11986;SDS011;6053;51.382;6.768;2022-07-23T06:36:26;2.22;;;1.80;;
11986;SDS011;6053;51.382;6.768;2022-07-23T06:38:55;2.63;;;2.47;;
11986;SDS011;6053;51.382;6.768;2022-07-23T06:41:23;3.30;;;1.98;;
11986;SDS011;6053;51.382;6.768;2022-07-23T06:43:52;2.58;;;2.40;;
11986;SDS011;6053;51.382;6.768;2022-07-23T06:46:21;6.07;;;3.78;;
11986;SDS011;6053;51.382;6.768;2022-07-23T06:48:51;3.53;;;2.63;;
11986;SDS011;6053;51.382;6.768;2022-07-23T06:51:20;3.97;;;2.93;;
11986;SDS011;6053;51.382;6.768;2022-07-23T06:53:48;5.00;;;3.83;;
11986;SDS011;6053;51.382;6.768;2022-07-23T06:56:16;2.10;;;2.00;;
11986;SDS011;6053;51.382;6.768;2022-07-23T06:58:45;3.08;;;2.58;;
11986;SDS011;6053;51.382;6.768;2022-07-23T07:01:13;3.35;;;2.53;;
11986;SDS011;6053;51.382;6.768;2022-07-23T07:03:43;3.43;;;2.27;;
11986;SDS011;6053;51.382;6.768;2022-07-23T07:06:11;3.80;;;3.10;;
11986;SDS011;6053;51.382;6.768;2022-07-23T07:08:41;2.60;;;2.28;;
11986;SDS011;6053;51.382;6.768;2022-07-23T07:11:10;4.88;;;3.03;;
11986;SDS011;6053;51.382;6.768;2022-07-23T07:13:38;2.58;;;2.35;;
11986;SDS011;6053;51.382;6.768;2022-07-23T07:16:07;1.60;;;1.27;;
11986;SDS011;6053;51.382;6.768;2022-07-23T07:18:35;3.60;;;2.05;;
11986;SDS011;6053;51.382;6.768;2022-07-23T07:21:05;3.75;;;2.30;;
11986;SDS011;6053;51.382;6.768;2022-07-23T07:23:33;5.43;;;4.28;;
11986;SDS011;6053;51.382;6.768;2022-07-23T07:26:02;2.72;;;2.20;;
11986;SDS011;6053;51.382;6.768;2022-07-23T07:28:30;4.35;;;3.17;;
11986;SDS011;6053;51.382;6.768;2022-07-23T07:30:59;3.80;;;2.90;;
11986;SDS011;6053;51.382;6.768;2022-07-23T07:33:28;5.30;;;3.53;;
11986;SDS011;6053;51.382;6.768;2022-07-23T07:35:57;7.85;;;4.03;;
11986;SDS011;6053;51.382;6.768;2022-07-23T07:38:28;3.87;;;2.73;;
11986;SDS011;6053;51.382;6.768;2022-07-23T07:40:56;4.28;;;2.85;;
11986;SDS011;6053;51.382;6.768;2022-07-23T07:43:25;6.55;;;3.88;;
11986;SDS011;6053;51.382;6.768;2022-07-23T07:45:53;3.47;;;2.77;;
11986;SDS011;6053;51.382;6.768;2022-07-23T07:48:22;3.80;;;3.40;;
11986;SDS011;6053;51.382;6.768;2022-07-23T07:50:50;2.20;;;2.00;;
11986;SDS011;6053;51.382;6.768;2022-07-23T07:53:19;5.80;;;3.07;;
11986;SDS011;6053;51.382;6.768;2022-07-23T07:55:49;7.25;;;3.78;;
11986;SDS011;6053;51.382;6.768;2022-07-23T07:58:17;5.22;;;2.80;;
11986;SDS011;6053;51.382;6.768;2022-07-23T08:00:45;4.67;;;2.33;;
11986;SDS011;6053;51.382;6.768;2022-07-23T08:03:15;2.90;;;1.65;;
11986;SDS011;6053;51.382;6.768;2022-07-23T08:05:45;2.10;;;1.50;;
11986;SDS011;6053;51.382;6.768;2022-07-23T08:08:13;2.08;;;1.42;;
11986;SDS011;6053;51.382;6.768;2022-07-23T08:10:42;1.98;;;1.60;;
11986;SDS011;6053;51.382;6.768;2022-07-23T08:13:14;2.00;;;1.38;;
11986;SDS011;6053;51.382;6.768;2022-07-23T08:15:43;3.80;;;2.17;;
11986;SDS011;6053;51.382;6.768;2022-07-23T08:18:12;2.40;;;1.98;;
11986;SDS011;6053;51.382;6.768;2022-07-23T08:20:40;2.95;;;1.80;;
11986;SDS011;6053;51.382;6.768;2022-07-23T08:23:09;3.33;;;1.63;;
11986;SDS011;6053;51.382;6.768;2022-07-23T08:25:38;4.43;;;2.10;;
11986;SDS011;6053;51.382;6.768;2022-07-23T08:28:10;2.38;;;1.60;;
11986;SDS011;6053;51.382;6.768;2022-07-23T08:30:42;2.50;;;1.33;;
11986;SDS011;6053;51.382;6.768;2022-07-23T08:33:12;1.05;;;1.05;;
11986;SDS011;6053;51.382;6.768;2022-07-23T08:35:59;2.13;;;1.40;;
11986;SDS011;6053;51.382;6.768;2022-07-23T08:38:30;2.25;;;1.23;;
11986;SDS011;6053;51.382;6.768;2022-07-23T08:40:59;1.33;;;1.10;;
11986;SDS011;6053;51.382;6.768;2022-07-23T08:43:29;1.80;;;1.33;;
11986;SDS011;6053;51.382;6.768;2022-07-23T08:46:00;2.22;;;0.95;;
11986;SDS011;6053;51.382;6.768;2022-07-23T08:48:31;2.00;;;1.15;;
11986;SDS011;6053;51.382;6.768;2022-07-23T08:51:05;1.10;;;0.85;;
11986;SDS011;6053;51.382;6.768;2022-07-23T08:53:36;2.47;;;1.67;;
11986;SDS011;6053;51.382;6.768;2022-07-23T08:56:07;1.45;;;1.33;;
11986;SDS011;6053;51.382;6.768;2022-07-23T08:58:37;1.02;;;0.85;;
11986;SDS011;6053;51.382;6.768;2022-07-23T09:01:05;0.88;;;0.77;;
11986;SDS011;6053;51.382;6.768;2022-07-23T09:03:37;2.03;;;1.10;;
11986;SDS011;6053;51.382;6.768;2022-07-23T09:06:06;1.73;;;1.23;;
11986;SDS011;6053;51.382;6.768;2022-07-23T09:08:35;1.37;;;1.00;;
11986;SDS011;6053;51.382;6.768;2022-07-23T09:11:05;1.30;;;1.20;;
11986;SDS011;6053;51.382;6.768;2022-07-23T09:13:38;1.07;;;0.87;;
11986;SDS011;6053;51.382;6.768;2022-07-23T09:16:10;0.80;;;0.80;;
11986;SDS011;6053;51.382;6.768;2022-07-23T09:18:42;1.85;;;0.98;;
11986;SDS011;6053;51.382;6.768;2022-07-23T09:21:17;1.23;;;1.15;;
11986;SDS011;6053;51.382;6.768;2022-07-23T09:23:50;1.20;;;1.10;;
11986;SDS011;6053;51.382;6.768;2022-07-23T09:26:23;2.20;;;1.30;;
11986;SDS011;6053;51.382;6.768;2022-07-23T09:29:05;1.73;;;1.10;;
11986;SDS011;6053;51.382;6.768;2022-07-23T09:31:47;0.90;;;0.90;;
11986;SDS011;6053;51.382;6.768;2022-07-23T09:34:19;3.70;;;1.77;;
11986;SDS011;6053;51.382;6.768;2022-07-23T09:36:50;1.30;;;0.83;;
11986;SDS011;6053;51.382;6.768;2022-07-23T09:39:25;3.20;;;1.58;;
11986;SDS011;6053;51.382;6.768;2022-07-23T09:41:57;1.33;;;1.23;;
11986;SDS011;6053;51.382;6.768;2022-07-23T09:44:42;1.27;;;1.02;;
11986;SDS011;6053;51.382;6.768;2022-07-23T09:47:11;3.30;;;1.20;;
11986;SDS011;6053;51.382;6.768;2022-07-23T09:49:40;1.30;;;1.20;;
11986;SDS011;6053;51.382;6.768;2022-07-23T09:52:25;0.90;;;0.90;;
11986;SDS011;6053;51.382;6.768;2022-07-23T09:55:01;1.53;;;1.30;;
11986;SDS011;6053;51.382;6.768;2022-07-23T09:57:32;1.33;;;0.85;;
11986;SDS011;6053;51.382;6.768;2022-07-23T10:00:03;1.63;;;1.33;;
11986;SDS011;6053;51.382;6.768;2022-07-23T10:02:35;0.63;;;0.60;;
11986;SDS011;6053;51.382;6.768;2022-07-23T10:05:05;1.70;;;1.20;;
11986;SDS011;6053;51.382;6.768;2022-07-23T10:07:36;0.70;;;0.70;;
11986;SDS011;6053;51.382;6.768;2022-07-23T10:10:08;1.80;;;1.00;;
11986;SDS011;6053;51.382;6.768;2022-07-23T10:12:38;1.05;;;0.73;;
11986;SDS011;6053;51.382;6.768;2022-07-23T10:15:26;1.27;;;0.80;;
11986;SDS011;6053;51.382;6.768;2022-07-23T10:17:55;0.90;;;0.60;;
11986;SDS011;6053;51.382;6.768;2022-07-23T10:20:23;0.93;;;0.50;;
11986;SDS011;6053;51.382;6.768;2022-07-23T10:22:54;1.80;;;0.70;;
11986;SDS011;6053;51.382;6.768;2022-07-23T10:25:30;1.15;;;0.60;;
11986;SDS011;6053;51.382;6.768;2022-07-23T10:28:06;1.75;;;0.80;;
11986;SDS011;6053;51.382;6.768;2022-07-23T10:31:02;0.80;;;0.60;;
11986;SDS011;6053;51.382;6.768;2022-07-23T10:34:02;0.77;;;0.77;;
11986;SDS011;6053;51.382;6.768;2022-07-23T10:36:40;1.00;;;0.80;;
11986;SDS011;6053;51.382;6.768;2022-07-23T10:39:18;0.85;;;0.85;;
11986;SDS011;6053;51.382;6.768;2022-07-23T10:41:49;1.38;;;0.88;;
11986;SDS011;6053;51.382;6.768;2022-07-23T10:44:19;1.80;;;0.73;;
11986;SDS011;6053;51.382;6.768;2022-07-23T10:46:58;0.68;;;0.65;;
11986;SDS011;6053;51.382;6.768;2022-07-23T10:49:49;1.40;;;1.00;;
11986;SDS011;6053;51.382;6.768;2022-07-23T10:52:21;1.30;;;0.82;;
11986;SDS011;6053;51.382;6.768;2022-07-23T10:54:52;0.88;;;0.82;;
11986;SDS011;6053;51.382;6.768;2022-07-23T10:57:24;1.50;;;0.90;;
11986;SDS011;6053;51.382;6.768;2022-07-23T11:00:15;0.65;;;0.63;;
11986;SDS011;6053;51.382;6.768;2022-07-23T11:02:51;0.60;;;0.60;;
11986;SDS011;6053;51.382;6.768;2022-07-23T11:05:22;0.75;;;0.75;;
11986;SDS011;6053;51.382;6.768;2022-07-23T11:10:50;0.90;;;0.70;;
11986;SDS011;6053;51.382;6.768;2022-07-23T11:13:30;0.63;;;0.63;;
11986;SDS011;6053;51.382;6.768;2022-07-23T11:16:06;0.70;;;0.70;;
11986;SDS011;6053;51.382;6.768;2022-07-23T11:24:25;1.30;;;0.60;;
11986;SDS011;6053;51.382;6.768;2022-07-23T11:26:55;1.73;;;0.93;;
11986;SDS011;6053;51.382;6.768;2022-07-23T11:29:47;0.70;;;0.50;;
11986;SDS011;6053;51.382;6.768;2022-07-23T11:32:30;0.88;;;0.77;;
11986;SDS011;6053;51.382;6.768;2022-07-23T11:37:54;1.20;;;0.82;;
11986;SDS011;6053;51.382;6.768;2022-07-23T11:40:33;0.80;;;0.80;;
11986;SDS011;6053;51.382;6.768;2022-07-23T11:43:04;1.40;;;0.90;;
11986;SDS011;6053;51.382;6.768;2022-07-23T11:45:35;0.60;;;0.60;;
11986;SDS011;6053;51.382;6.768;2022-07-23T11:48:05;1.98;;;0.80;;
11986;SDS011;6053;51.382;6.768;2022-07-23T11:50:37;0.90;;;0.80;;
11986;SDS011;6053;51.382;6.768;2022-07-23T11:53:06;1.25;;;0.70;;
11986;SDS011;6053;51.382;6.768;2022-07-23T11:55:34;0.70;;;0.70;;
11986;SDS011;6053;51.382;6.768;2022-07-23T11:58:03;0.98;;;0.80;;
11986;SDS011;6053;51.382;6.768;2022-07-23T12:00:32;0.75;;;0.73;;
11986;SDS011;6053;51.382;6.768;2022-07-23T12:03:06;0.90;;;0.90;;
11986;SDS011;6053;51.382;6.768;2022-07-23T12:05:36;1.50;;;0.88;;
11986;SDS011;6053;51.382;6.768;2022-07-23T12:08:07;0.50;;;0.50;;
11986;SDS011;6053;51.382;6.768;2022-07-23T12:10:38;0.53;;;0.53;;
11986;SDS011;6053;51.382;6.768;2022-07-23T12:13:09;0.70;;;0.70;;
11986;SDS011;6053;51.382;6.768;2022-07-23T12:15:41;0.90;;;0.83;;
11986;SDS011;6053;51.382;6.768;2022-07-23T12:18:13;0.75;;;0.75;;
11986;SDS011;6053;51.382;6.768;2022-07-23T12:20:45;1.45;;;1.00;;
11986;SDS011;6053;51.382;6.768;2022-07-23T12:23:17;1.05;;;0.80;;
11986;SDS011;6053;51.382;6.768;2022-07-23T12:25:47;1.02;;;1.00;;
11986;SDS011;6053;51.382;6.768;2022-07-23T12:28:18;0.55;;;0.50;;
11986;SDS011;6053;51.382;6.768;2022-07-23T12:30:49;1.33;;;0.77;;
11986;SDS011;6053;51.382;6.768;2022-07-23T12:33:22;1.47;;;0.73;;
11986;SDS011;6053;51.382;6.768;2022-07-23T12:35:54;0.80;;;0.80;;
11986;SDS011;6053;51.382;6.768;2022-07-23T12:38:25;0.90;;;0.90;;
11986;SDS011;6053;51.382;6.768;2022-07-23T12:41:04;0.53;;;0.50;;
11986;SDS011;6053;51.382;6.768;2022-07-23T12:43:33;1.80;;;1.00;;
11986;SDS011;6053;51.382;6.768;2022-07-23T12:46:05;0.95;;;0.80;;
11986;SDS011;6053;51.382;6.768;2022-07-23T12:48:35;0.93;;;0.80;;
11986;SDS011;6053;51.382;6.768;2022-07-23T12:51:08;1.00;;;0.73;;
11986;SDS011;6053;51.382;6.768;2022-07-23T12:54:04;0.93;;;0.60;;
11986;SDS011;6053;51.382;6.768;2022-07-23T12:56:36;2.15;;;0.75;;
11986;SDS011;6053;51.382;6.768;2022-07-23T12:59:07;0.60;;;0.60;;
11986;SDS011;6053;51.382;6.768;2022-07-23T13:01:38;0.65;;;0.45;;
11986;SDS011;6053;51.382;6.768;2022-07-23T13:04:12;0.40;;;0.40;;
11986;SDS011;6053;51.382;6.768;2022-07-23T13:06:45;1.10;;;0.90;;
11986;SDS011;6053;51.382;6.768;2022-07-23T13:09:16;0.73;;;0.50;;
11986;SDS011;6053;51.382;6.768;2022-07-23T13:11:48;0.80;;;0.80;;
11986;SDS011;6053;51.382;6.768;2022-07-23T13:14:18;0.63;;;0.63;;
11986;SDS011;6053;51.382;6.768;2022-07-23T13:16:47;1.00;;;0.50;;
11986;SDS011;6053;51.382;6.768;2022-07-23T13:19:18;1.45;;;0.60;;
11986;SDS011;6053;51.382;6.768;2022-07-23T13:21:51;0.85;;;0.68;;
11986;SDS011;6053;51.382;6.768;2022-07-23T13:24:19;1.20;;;0.70;;
11986;SDS011;6053;51.382;6.768;2022-07-23T13:26:48;0.60;;;0.60;;
11986;SDS011;6053;51.382;6.768;2022-07-23T13:29:18;0.50;;;0.50;;
11986;SDS011;6053;51.382;6.768;2022-07-23T13:31:47;0.80;;;0.80;;
11986;SDS011;6053;51.382;6.768;2022-07-23T13:34:16;1.15;;;0.70;;
11986;SDS011;6053;51.382;6.768;2022-07-23T13:36:45;0.40;;;0.40;;
11986;SDS011;6053;51.382;6.768;2022-07-23T13:39:15;2.53;;;0.60;;
11986;SDS011;6053;51.382;6.768;2022-07-23T13:41:43;0.63;;;0.63;;
11986;SDS011;6053;51.382;6.768;2022-07-23T13:44:15;0.70;;;0.63;;
11986;SDS011;6053;51.382;6.768;2022-07-23T13:46:45;0.93;;;0.57;;
11986;SDS011;6053;51.382;6.768;2022-07-23T13:49:14;0.63;;;0.60;;
11986;SDS011;6053;51.382;6.768;2022-07-23T13:51:43;1.40;;;0.80;;
11986;SDS011;6053;51.382;6.768;2022-07-23T13:54:11;0.30;;;0.30;;
11986;SDS011;6053;51.382;6.768;2022-07-23T13:56:41;0.60;;;0.60;;
11986;SDS011;6053;51.382;6.768;2022-07-23T13:59:09;1.90;;;0.80;;
11986;SDS011;6053;51.382;6.768;2022-07-23T14:01:38;0.63;;;0.63;;
11986;SDS011;6053;51.382;6.768;2022-07-23T14:04:26;0.20;;;0.20;;
11986;SDS011;6053;51.382;6.768;2022-07-23T14:06:55;1.42;;;0.80;;
11986;SDS011;6053;51.382;6.768;2022-07-23T14:09:24;1.20;;;0.63;;
11986;SDS011;6053;51.382;6.768;2022-07-23T14:11:54;0.83;;;0.43;;
11986;SDS011;6053;51.382;6.768;2022-07-23T14:14:24;1.50;;;0.68;;
11986;SDS011;6053;51.382;6.768;2022-07-23T14:16:52;0.88;;;0.80;;
11986;SDS011;6053;51.382;6.768;2022-07-23T14:19:22;0.38;;;0.38;;
11986;SDS011;6053;51.382;6.768;2022-07-23T14:21:52;1.60;;;0.70;;
11986;SDS011;6053;51.382;6.768;2022-07-23T14:24:20;0.70;;;0.70;;
11986;SDS011;6053;51.382;6.768;2022-07-23T14:26:48;1.60;;;0.75;;
11986;SDS011;6053;51.382;6.768;2022-07-23T14:29:18;1.15;;;0.57;;
11986;SDS011;6053;51.382;6.768;2022-07-23T14:31:46;1.13;;;0.60;;
11986;SDS011;6053;51.382;6.768;2022-07-23T14:34:15;0.98;;;0.68;;
11986;SDS011;6053;51.382;6.768;2022-07-23T14:36:53;1.20;;;0.50;;
11986;SDS011;6053;51.382;6.768;2022-07-23T14:39:22;0.57;;;0.57;;
11986;SDS011;6053;51.382;6.768;2022-07-23T14:41:50;0.85;;;0.68;;
11986;SDS011;6053;51.382;6.768;2022-07-23T14:44:20;0.50;;;0.50;;
11986;SDS011;6053;51.382;6.768;2022-07-23T14:46:49;0.90;;;0.50;;
11986;SDS011;6053;51.382;6.768;2022-07-23T14:49:18;0.60;;;0.60;;
11986;SDS011;6053;51.382;6.768;2022-07-23T14:51:46;1.15;;;0.80;;
11986;SDS011;6053;51.382;6.768;2022-07-23T14:54:15;0.67;;;0.67;;
11986;SDS011;6053;51.382;6.768;2022-07-23T14:56:43;0.95;;;0.60;;
11986;SDS011;6053;51.382;6.768;2022-07-23T14:59:12;0.45;;;0.45;;
11986;SDS011;6053;51.382;6.768;2022-07-23T15:01:43;0.70;;;0.67;;
11986;SDS011;6053;51.382;6.768;2022-07-23T15:04:13;0.90;;;0.68;;
11986;SDS011;6053;51.382;6.768;2022-07-23T15:07:02;1.45;;;0.80;;
11986;SDS011;6053;51.382;6.768;2022-07-23T15:09:30;1.35;;;0.30;;
11986;SDS011;6053;51.382;6.768;2022-07-23T15:12:01;0.77;;;0.77;;
11986;SDS011;6053;51.382;6.768;2022-07-23T15:14:33;0.90;;;0.50;;
11986;SDS011;6053;51.382;6.768;2022-07-23T15:17:05;1.15;;;0.60;;
11986;SDS011;6053;51.382;6.768;2022-07-23T15:19:34;1.10;;;0.70;;
11986;SDS011;6053;51.382;6.768;2022-07-23T15:22:02;0.30;;;0.30;;
11986;SDS011;6053;51.382;6.768;2022-07-23T15:24:33;1.40;;;0.70;;
11986;SDS011;6053;51.382;6.768;2022-07-23T15:27:02;0.70;;;0.50;;
11986;SDS011;6053;51.382;6.768;2022-07-23T15:29:30;0.50;;;0.50;;
11986;SDS011;6053;51.382;6.768;2022-07-23T15:31:59;0.82;;;0.82;;